• Join FlightAware (Why Join?)
  • Login
  • US Flag GB Flag 
07:03 EDT


 

Airport Tracker/Info


-or-


 

Live Flight TrackerFlight Track Log ✈ EJA929 ✈ 30-Jun-2013 ✈ KJAC - KSFO

Flight Track Log - Related Links

Times and Time Zones

All times are in EDT time to prevent confusion due to time zone crossing. See the EJA929 flight status page for this flight to view local times or setup timezone preferences in your user account.

Time Position Orientation Groundspeed Altitude Reporting Facility
EDT Latitude Longitude Course Direction KTS MPH feet Rate Location/Type
11:37 43.5597 -110.7675 249° West 227 261 8,700  Level Salt Lake Center
11:38 43.5011 -110.8061 206° Southwest 232 267 12,600 3,000 Climbing Salt Lake Center
11:39 43.4439 -110.8797 223° Southwest 297 342 15,000 1,980 Climbing Salt Lake Center
11:40 43.1282 -111.3839 258° West  Level FlightAware Approximate
11:40 43.3964 -111.0047 242° Southwest 358 412 16,700  Level Salt Lake Center
11:41 43.1030 -111.5475 258° West  Level FlightAware Approximate
11:41 43.3442 -111.1392 242° Southwest 391 450 17,900  Level Salt Lake Center
11:42 43.0608 -111.7041 249° West  Level FlightAware Approximate
11:42 43.2817 -111.3028 242° Southwest 402 463 19,600  Level Salt Lake Center
11:43 43.2331 -111.4289 242° Southwest 408 470 20,800 1,200 Climbing Salt Lake Center
11:44 43.1714 -111.5839 241° Southwest 414 476 22,200 1,200 Climbing Salt Lake Center
11:46 43.0539 -111.8828 242° Southwest 432 497 24,700 1,140 Climbing Salt Lake Center
11:47 42.9967 -112.0256 241° Southwest 442 509 25,800 1,200 Climbing Salt Lake Center
11:48 42.9294 -112.1953 242° Southwest 452 520 27,300 1,560 Climbing Salt Lake Center
11:49 42.8717 -112.3381 241° Southwest 450 518 29,100 1,740 Climbing Salt Lake Center
11:50 42.8139 -112.4786 241° Southwest 445 512 31,000 1,980 Climbing Salt Lake Center
11:51 42.7489 -112.6439 242° Southwest 442 509 33,200 2,040 Climbing Salt Lake Center
11:52 42.6867 -112.7922 240° Southwest 440 506 35,300 1,800 Climbing Salt Lake Center
11:53 42.6269 -112.9378 241° Southwest 442 509 37,000 780 Climbing Salt Lake Center
11:54 42.5642 -113.0914 241° Southwest 465 535 37,000  Level Salt Lake Center
11:55 42.4950 -113.2561 240° Southwest 498 573 37,000  Level Salt Lake Center
11:56 42.4089 -113.4597 240° Southwest 517 595 37,100 480 Climbing Salt Lake Center
11:57 42.3386 -113.6283 241° Southwest 515 593 38,100 960 Climbing Salt Lake Center
11:58 42.2692 -113.7939 240° Southwest 508 585 39,100 900 Climbing Salt Lake Center
11:59 42.2003 -113.9567 240° Southwest 503 579 40,000 420 Climbing Salt Lake Center
12:00 42.1311 -114.1186 236° Southwest 499 574 40,000  Level Salt Lake Center
12:01 42.1200 -114.1150 236° Southwest  Level FlightAware Approximate
12:01 42.0594 -114.2831 240° Southwest 509 586 40,000  Level Salt Lake Center
12:02 41.9753 -114.4797 240° Southwest 508 585 40,000  Level Salt Lake Center
12:03 41.9122 -114.6314 241° Southwest 511 588 40,000  Level Salt Lake Center
12:05 41.8328 -114.8114 239° Southwest 505 581 40,000  Level Salt Lake Center
12:06 41.7622 -114.9672 239° Southwest 509 586 40,000  Level Salt Lake Center
12:07 41.6489 -115.2281 240° Southwest 508 585 40,000  Level Oakland Center
12:08 41.5683 -115.4100 239° Southwest 508 585 40,000  Level Oakland Center
12:09 41.4989 -115.5650 239° Southwest 509 586 40,000  Level Oakland Center
12:10 41.4183 -115.7444 239° Southwest 508 585 40,000  Level Oakland Center
12:11 41.3486 -115.8981 239° Southwest 506 582 40,000  Level Oakland Center
12:12 41.3125 -115.9725 237° Southwest 505 581 40,000  Level Salt Lake Center
12:13 41.2311 -116.1508 239° Southwest 507 583 40,000  Level Salt Lake Center
12:14 41.1617 -116.3050 239° Southwest 509 586 40,000  Level Salt Lake Center
12:15 41.0803 -116.4831 239° Southwest 508 585 40,000  Level Salt Lake Center
12:16 41.0092 -116.6333 238° Southwest 505 581 40,000  Level Salt Lake Center
12:17 40.9264 -116.8100 238° Southwest 508 585 40,000  Level Salt Lake Center
12:18 40.8561 -116.9608 238° Southwest 507 583 40,000  Level Salt Lake Center
12:19 40.7742 -117.1378 239° Southwest 509 586 40,000  Level Salt Lake Center
12:20 40.7019 -117.2869 237° Southwest 507 583 40,000  Level Salt Lake Center
12:22 40.5472 -117.6111 238° Southwest 508 585 40,000  Level Salt Lake Center
12:23 40.4636 -117.7844 238° Southwest 504 580 40,000  Level Salt Lake Center
12:24 40.3906 -117.9325 237° Southwest 505 581 40,000  Level Salt Lake Center
12:25 40.3189 -118.0803 238° Southwest 505 581 40,000  Level Salt Lake Center
12:26 40.2406 -118.2586 240° Southwest 506 582 40,000  Level Salt Lake Center
12:27 40.1933 -118.4233 249° West 505 581 40,000  Level Salt Lake Center
12:28 40.1336 -118.6267 249° West 506 582 40,000  Level Salt Lake Center
12:29 40.0842 -118.7967 249° West 505 581 40,000  Level Salt Lake Center
12:31 40.0144 -119.0350 249° West 502 578 40,000  Level Oakland Center
12:32 39.9625 -119.2022 248° West 501 577 40,000  Level Oakland Center
12:33 39.9119 -119.3697 249° West 500 575 40,000  Level Oakland Center
12:34 39.8600 -119.5369 248° West 500 575 40,000  Level Oakland Center
12:35 39.8100 -119.7044 249° West 500 575 40,000  Level Oakland Center
12:36 39.7594 -119.8706 248° West 494 568 40,000  Level Oakland Center
12:37 39.7111 -120.0394 250° West 502 578 40,000  Level Oakland Center
12:38 39.6553 -120.2147 248° West 503 579 40,000  Level Oakland Center
12:39 39.6014 -120.3814 247° West 503 579 40,000  Level Oakland Center
12:40 39.5439 -120.5458 246° West 504 580 40,000  Level Oakland Center
12:41 39.4428 -120.7150 232° Southwest 499 574 40,000  Level Oakland Center
12:42 39.3558 -120.8575 232° Southwest 504 580 40,000  Level Oakland Center
12:43 39.2681 -120.9975 231° Southwest 505 581 40,000  Level Oakland Center
12:44 39.1811 -121.1378 231° Southwest 504 580 40,000  Level Oakland Center
12:45 39.0947 -121.2778 232° Southwest 504 580 40,000  Level Oakland Center
12:46 39.0075 -121.4178 231° Southwest 504 580 40,000 -360 Level Oakland Center
12:47 38.9206 -121.5569 231° Southwest 505 581 39,300 -1,800 Descending Oakland Center
12:48 38.8181 -121.7186 231° Southwest 496 571 36,400 -2,520 Descending Oakland Center
12:49 38.7292 -121.8600 231° Southwest 512 589 34,200 -2,280 Descending Oakland Center
12:50 38.6486 -121.9869 231° Southwest 514 592 31,800 -2,520 Descending Oakland Center
12:51 38.5594 -122.1258 231° Southwest 508 585 29,100 -3,180 Descending Oakland Center
12:53 38.4269 -122.2423 211° Southwest  Level FlightAware Approximate
12:53 38.3361 -122.3481 211° Southwest 445 512 22,100  Level Oakland Center
12:54 38.2292 -122.4289 211° Southwest 447 514 19,300 -2,880 Descending Oakland Center
12:55 38.1233 -122.5075 210° Southwest 443 510 16,300 -2,760 Descending Oakland Center
12:56 38.0242 -122.5814 210° Southwest 423 487 13,700 -2,580 Descending Oakland Center
12:57 37.9311 -122.6425 207° Southwest 410 472 11,100 -1,380 Descending Oakland Center
12:58 37.8244 -122.5961 161° South 359 413 10,900 -120 Descending Oakland Center
12:59 37.7833 -122.5500 138° Southeast 370 426 11,000 60 Climbing Northern Cal TRACON
13:00 37.7167 -122.4667 135° Southeast 304 350 11,000 -300 Level Northern Cal TRACON
13:01 37.6500 -122.4167 149° Southeast 246 283 10,400 -1,320 Descending Northern Cal TRACON
13:02 37.6000 -122.3667 142° Southeast 240 276 8,400 -2,400 Descending Northern Cal TRACON
13:03 37.5333 -122.3333 158° South 239 275 5,700 -2,160 Descending Northern Cal TRACON
13:04 37.4833 -122.2833 142° Southeast 242 278 4,100 -900 Descending Northern Cal TRACON
13:05 37.4833 -122.2167 90° East 224 258 3,900 -780 Descending Northern Cal TRACON
13:06 37.5333 -122.2167 360° North 205 236 2,600 -780 Descending Northern Cal TRACON
13:07 37.5667 -122.2667 310° West 181 208 2,400 -600 Descending Northern Cal TRACON
13:08 37.5833 -122.3000 302° West 132 152 1,400 -960 Descending Northern Cal TRACON
13:09 37.6000 -122.3333 302° West 125 144 600 -900 Descending Northern Cal TRACON
13:12 37.6167 -122.3667 North  Level FlightAware Approximate
13:19 37.6191 -122.3752 North  Level Estimated
13:20 37.6167 -122.3667 North  Level FlightAware Approximate
13:21 37.6191 -122.3752 North  Level Estimated
13:22 37.6167 -122.3667 North  Level FlightAware Approximate